• Join FlightAware (Why Join?)
  • Login
  • US Flag 
03:08AM EDT


 

Airport Tracker/Info


-or-


 

Live Flight TrackerFlight Track Log ✈ N264FX ✈ 28-May-2012 ✈ KPBI - KDAL

Flight Track Log - Related Links

Times and Time Zones

All times are in EDT time to prevent confusion due to time zone crossing. See the N264FX flight status page for this flight to view local times or setup timezone preferences in your user account.

Time Position Orientation Groundspeed Altitude Reporting Facility
EDT Latitude Longitude Course Direction KTS MPH feet Rate Location/Type
04:09PM 26.7339 -79.9992 349° North 275 316 5,900  Level Miami Center
04:10PM 26.8044 -80.0150 305° West 292 336 9,500 2,040 Climbing Miami Center
04:11PM 26.8508 -80.0883 308° West 301 346 10,000 240 Climbing Miami Center
04:12PM 26.9014 -80.1619 312° West 301 346 10,000 1,020 Level Miami Center
04:13PM 26.9481 -80.2192 313° West 287 330 12,100 1,500 Climbing Miami Center
04:14PM 27.0153 -80.3006 313° West 300 345 13,000 660 Climbing Miami Center
04:15PM 27.0739 -80.3722 313° West 305 351 13,500 1,920 Climbing Miami Center
04:16PM 27.1289 -80.4392 319° Northwest 305 351 16,900 3,000 Climbing Miami Center
04:17PM 27.1900 -80.4994 323° Northwest 304 350 19,600 2,760 Climbing Miami Center
04:18PM 27.2633 -80.5625 312° West 323 372 22,500 2,040 Climbing Miami Center
04:19PM 27.3322 -80.6489 307° West 343 395 23,700 1,800 Climbing Miami Center
04:20PM 27.3986 -80.7469 316° Northwest 376 433 26,100 2,400 Climbing Miami Center
04:21PM 27.4797 -80.8339 316° Northwest 391 450 28,500 2,640 Climbing Miami Center
04:22PM 27.5608 -80.9211 316° Northwest 403 464 31,400 2,520 Climbing Miami Center
04:23PM 27.6397 -81.0081 314° West 398 458 33,600 2,220 Climbing Miami Center
04:24PM 27.7183 -81.1000 316° Northwest 398 458 35,900 2,340 Climbing Miami Center
04:25PM 27.7972 -81.1875 317° Northwest 398 458 38,300 2,040 Climbing Miami Center
04:26PM 27.8861 -81.2825 315° West 399 459 40,000 840 Climbing Miami Center
04:27PM 27.9667 -81.3725 315° West 399 459 40,000  Level Miami Center
04:28PM 28.0472 -81.4653 316° Northwest 423 487 40,000  Level Miami Center
04:29PM 28.1358 -81.5631 315° West 441 507 40,000  Level Miami Center
04:30PM 28.2264 -81.6656 315° West 448 516 40,000  Level Miami Center
04:34PM 28.5350 -82.0136 316° Northwest 445 512 40,000  Level Jacksonville Center
04:35PM 28.6169 -82.1028 315° West 453 521 40,000  Level Jacksonville Center
04:36PM 28.7053 -82.2039 315° West 453 521 40,000  Level Jacksonville Center
04:37PM 28.7933 -82.3050 314° West 453 521 40,000  Level Jacksonville Center
04:38PM 28.8858 -82.4136 307° West 435 501 40,000 -60 Level Jacksonville Center
04:39PM 28.9611 -82.5272 292° West 444 511 39,900  Descending Jacksonville Center
04:40PM 29.0075 -82.6600 290° West 444 511 40,000  Climbing Jacksonville Center
04:41PM 29.0514 -82.7953 291° West 449 517 40,000 -60 Level Jacksonville Center
04:42PM 29.0953 -82.9258 292° West 449 517 39,900  Descending Jacksonville Center
04:43PM 29.1411 -83.0589 291° West 449 517 40,000 600 Climbing Jacksonville Center
04:44PM 29.1847 -83.1922 290° West 449 517 41,100 1,320 Climbing Jacksonville Center
04:45PM 29.2261 -83.3208 291° West 449 517 42,700 900 Climbing Jacksonville Center
04:46PM 29.2694 -83.4472 290° West 443 510 43,000 120 Climbing Jacksonville Center
04:47PM 29.3128 -83.5808 291° West 443 510 43,000  Level Jacksonville Center
04:48PM 29.3578 -83.7122 291° West 448 516 43,000  Level Jacksonville Center
04:49PM 29.4008 -83.8436 290° West 448 516 43,000  Level Jacksonville Center
04:50PM 29.4436 -83.9753 290° West 448 516 43,000  Level Jacksonville Center
04:51PM 29.4861 -84.1092 290° West 448 516 43,000 -60 Level Jacksonville Center
04:52PM 29.5286 -84.2411 291° West 448 516 42,900  Descending Jacksonville Center
04:53PM 29.5711 -84.3706 291° West 448 516 43,000  Climbing Jacksonville Center
04:54PM 29.6133 -84.4978 289° West 443 510 42,900  Descending Jacksonville Center
04:55PM 29.6533 -84.6325 291° West 443 510 43,000  Climbing Jacksonville Center
04:56PM 29.6975 -84.7622 291° West 443 510 42,900  Descending Jacksonville Center
04:57PM 29.7414 -84.8947 290° West 438 504 43,000  Climbing Jacksonville Center
04:58PM 29.7811 -85.0222 290° West 438 504 43,000  Level Jacksonville Center
04:59PM 29.8228 -85.1550 289° West 438 504 43,000  Level Jacksonville Center
05:00PM 29.8619 -85.2850 289° West 438 504 43,000  Level Jacksonville Center
05:01PM 29.9014 -85.4156 290° West 433 498 43,000  Level Jacksonville Center
05:02PM 29.9425 -85.5436 288° West 433 498 43,000  Level Jacksonville Center
05:03PM 29.9736 -85.6547 290° West 433 498 43,000  Level Jacksonville Center
05:04PM 30.0203 -85.8025 291° West 443 510 43,000  Level Jacksonville Center
05:05PM 30.0633 -85.9308 290° West 448 516 43,000  Level Jacksonville Center
05:06PM 30.1039 -86.0594 290° West 441 507 43,000  Level Jacksonville Center
05:07PM 30.1447 -86.1881 289° West 433 498 43,000  Level Jacksonville Center
05:08PM 30.1850 -86.3214 289° West 433 498 43,000  Level Jacksonville Center
05:09PM 30.2231 -86.4503 287° West 433 498 43,000  Level Jacksonville Center
05:10PM 30.2589 -86.5839 292° West 433 498 43,000  Level Jacksonville Center
05:11PM 30.3033 -86.7131 288° West 433 498 43,000  Level Jacksonville Center
05:12PM 30.3408 -86.8469 289° West 433 498 43,000  Level Jacksonville Center
05:13PM 30.3844 -86.9908 290° West 433 498 43,000  Level Jacksonville Center
05:14PM 30.4258 -87.1250 289° West 433 498 43,000  Level Jacksonville Center
05:16PM 30.4975 -87.3739 289° West 429 494 43,000  Level Houston Center
05:17PM 30.5372 -87.5097 288° West 434 499 43,000  Level Houston Center
05:18PM 30.5747 -87.6408 289° West 434 499 43,000  Level Houston Center
05:19PM 30.6142 -87.7767 288° West 446 513 43,000  Level Houston Center
05:20PM 30.6533 -87.9150 288° West 441 507 43,000  Level Houston Center
05:21PM 30.6906 -88.0514 290° West 441 507 43,000  Level Houston Center
05:22PM 30.7339 -88.1897 289° West 453 521 43,000  Level Houston Center
05:23PM 30.7750 -88.3286 287° West 453 521 43,000  Level Houston Center
05:24PM 30.8117 -88.4650 288° West 453 521 43,000  Level Houston Center
05:25PM 30.8503 -88.6017 286° West 453 521 43,000  Level Houston Center
05:26PM 30.8847 -88.7433 286° West 453 521 43,000  Level Houston Center
05:27PM 30.9189 -88.8828 285° West 453 521 43,000  Level Houston Center
05:28PM 30.9508 -89.0175 282° West 448 516 43,000  Level Houston Center
05:29PM 30.9764 -89.1572 283° West 448 516 43,000  Level Houston Center
05:30PM 31.0039 -89.2969 281° West 448 516 43,000  Level Houston Center
05:31PM 31.0272 -89.4344 282° West 448 516 43,000  Level Houston Center
05:32PM 31.0544 -89.5792 282° West 448 516 43,000  Level Houston Center
05:33PM 31.0794 -89.7169 282° West 448 516 43,000  Level Houston Center
05:34PM 31.1044 -89.8547 282° West 448 516 43,000  Level Houston Center
05:35PM 31.1292 -89.9900 281° West 443 510 43,000  Level Houston Center
05:36PM 31.1517 -90.1278 282° West 443 510 43,000  Level Houston Center
05:37PM 31.1761 -90.2633 281° West 437 503 43,000  Level Houston Center
05:38PM 31.1981 -90.3992 283° West 437 503 43,000  Level Houston Center
05:39PM 31.2244 -90.5322 280° West 430 495 43,000  Level Houston Center
05:40PM 31.2442 -90.6681 283° West 430 495 43,000  Level Houston Center
05:41PM 31.2703 -90.8036 282° West 430 495 43,000  Level Houston Center
05:42PM 31.2939 -90.9394 281° West 430 495 43,000  Level Houston Center
05:43PM 31.3156 -91.0756 281° West 430 495 43,000  Level Houston Center
05:44PM 31.3347 -91.1919 281° West 422 486 43,000  Level Houston Center
05:45PM 31.3558 -91.3256 282° West 422 486 43,000  Level Houston Center
05:46PM 31.3792 -91.4592 281° West 422 486 43,000  Level Houston Center
05:47PM 31.4044 -91.6075 281° West 427 491 43,000  Level Houston Center
05:48PM 31.4253 -91.7364 281° West 427 491 43,000  Level Houston Center
05:49PM 31.4481 -91.8703 280° West 427 491 43,000  Level Houston Center
05:50PM 31.4686 -92.0017 281° West 427 491 43,000  Level Houston Center
05:51PM 31.4892 -92.1236 281° West 432 497 43,000  Level Houston Center
05:52PM 31.5114 -92.2600 281° West 427 491 43,000  Level Houston Center
05:53PM 31.5339 -92.3964 280° West 427 491 43,000  Level Houston Center
05:54PM 31.5539 -92.5281 279° West 427 491 43,000  Level Houston Center
05:55PM 31.5736 -92.6672 281° West 427 491 43,000  Level Houston Center
05:57PM 31.6267 -92.9953 281° West 435 501 43,000  Level Fort Worth Center
05:58PM 31.6478 -93.1283 279° West 430 495 43,000  Level Fort Worth Center
05:59PM 31.6669 -93.2642 279° West 423 487 43,000  Level Fort Worth Center
06:00PM 31.6858 -93.3975 286° West 423 487 43,000  Level Fort Worth Center
06:01PM 31.7172 -93.5281 291° West 423 487 43,000  Level Fort Worth Center
06:02PM 31.7586 -93.6533 290° West 423 487 43,000  Level Fort Worth Center
06:03PM 31.7978 -93.7811 289° West 418 481 43,000  Level Fort Worth Center
06:04PM 31.8347 -93.9094 291° West 418 481 43,000  Level Fort Worth Center
06:05PM 31.8758 -94.0350 292° West 418 481 43,000  Level Fort Worth Center
06:06PM 31.9144 -94.1486 290° West 418 481 43,000  Level Fort Worth Center
06:07PM 31.9531 -94.2769 290° West 418 481 43,000  Level Fort Worth Center
06:08PM 31.9917 -94.4006 291° West 418 481 43,000 -60 Level Fort Worth Center
06:09PM 32.0322 -94.5267 289° West 418 481 42,900 -780 Descending Fort Worth Center
06:10PM 32.0683 -94.6531 289° West 418 481 41,500 -1,500 Descending Fort Worth Center
06:11PM 32.1067 -94.7817 290° West 418 481 40,000 -1,500 Descending Fort Worth Center
06:12PM 32.1469 -94.9131 289° West 423 487 38,600 -1,500 Descending Fort Worth Center
06:13PM 32.1869 -95.0469 289° West 428 493 37,100 -1,620 Descending Fort Worth Center
06:14PM 32.2292 -95.1908 290° West 428 493 35,400 -1,980 Descending Fort Worth Center
06:15PM 32.2647 -95.3078 289° West 428 493 33,200 -2,700 Descending Fort Worth Center
06:16PM 32.3044 -95.4422 289° West 423 487 30,000 -3,300 Descending Fort Worth Center
06:17PM 32.3442 -95.5814 290° West 435 501 26,700 -3,300 Descending Fort Worth Center
06:18PM 32.3856 -95.7133 288° West 435 501 23,500 -3,180 Descending Fort Worth Center
06:19PM 32.4208 -95.8458 289° West 440 506 20,400 -3,360 Descending Fort Worth Center
06:20PM 32.4642 -95.9928 299° West 434 499 16,800 -3,180 Descending Fort Worth Center
06:21PM 32.4892 -96.0458 287° West 405 466 15,500 -2,880 Descending FAA TRACON SMA TRACON (SMA)
06:21PM 32.5111 -96.1328 289° West 395 455 13,400 -2,940 Descending FAA TRACON SMA TRACON (SMA)
06:22PM 32.5339 -96.2125 287° West 365 420 11,600 -2,520 Descending FAA TRACON SMA TRACON (SMA)
06:22PM 32.5503 -96.2764 296° West 326 375 10,100 -2,160 Descending FAA TRACON SMA TRACON (SMA)
06:23PM 32.5750 -96.3369 301° West 291 335 8,800 -1,620 Descending FAA TRACON SMA TRACON (SMA)
06:24PM 32.5989 -96.3839 303° West 270 311 8,000 -1,380 Descending FAA TRACON SMA TRACON (SMA)
06:25PM 32.6278 -96.4364 304° West 275 316 7,000 -1,620 Descending FAA TRACON SMA TRACON (SMA)
06:25PM 32.6572 -96.4886 306° West 275 316 5,900 -1,380 Descending FAA TRACON SMA TRACON (SMA)
06:26PM 32.6872 -96.5383 317° Northwest 277 319 5,200 -780 Descending FAA TRACON SMA TRACON (SMA)
06:26PM 32.7269 -96.5825 318° Northwest 284 327 4,900 -240 Descending FAA TRACON SMA TRACON (SMA)
06:27PM 32.7606 -96.6189 317° Northwest 266 306 4,900 -300 Level FAA TRACON SMA TRACON (SMA)
06:28PM 32.7978 -96.6597 317° Northwest 254 292 4,500 -780 Descending FAA TRACON SMA TRACON (SMA)
06:29PM 32.8297 -96.6953 319° Northwest 233 268 3,900 -480 Descending FAA TRACON SMA TRACON (SMA)
06:29PM 32.8594 -96.7264 317° Northwest 223 257 3,900  Level FAA TRACON SMA TRACON (SMA)
06:30PM 32.8914 -96.7619 317° Northwest 235 270 3,900 -420 Level FAA TRACON SMA TRACON (SMA)
06:31PM 32.9222 -96.7967 291° West 238 274 3,400 -780 Descending FAA TRACON SMA TRACON (SMA)
06:31PM 32.9369 -96.8419 267° West 223 257 2,900 -780 Descending FAA TRACON SMA TRACON (SMA)
06:32PM 32.9353 -96.8858 206° Southwest 191 220 2,400 -900 Descending FAA TRACON SMA TRACON (SMA)
06:33PM 32.9100 -96.9008 160° South 154 177 1,700 -840 Descending FAA TRACON SMA TRACON (SMA)
06:33PM 32.8886 -96.8914 136° Southeast 140 161 1,300 -720 Descending FAA TRACON SMA TRACON (SMA)
06:34PM 32.8697 -96.8694 136° Southeast 137 158 800 -780 Descending FAA TRACON SMA TRACON (SMA)